createdAt,value
2022-08-11T00:00:18.938Z,19.40
2022-08-11T00:01:26.413Z,19.30
2022-08-11T00:02:33.366Z,19.30
2022-08-11T00:03:43.778Z,19.20
2022-08-11T00:04:46.431Z,19.20
2022-08-11T00:05:53.292Z,19.20
2022-08-11T00:06:56.458Z,19.20
2022-08-11T00:08:01.480Z,19.20
2022-08-11T00:09:06.750Z,19.10
2022-08-11T00:10:12.987Z,19.10
2022-08-11T00:11:17.146Z,19.10
2022-08-11T00:12:20.713Z,19.10
2022-08-11T00:13:30.929Z,19.00
2022-08-11T00:14:37.146Z,19.00
2022-08-11T00:15:42.973Z,19.00
2022-08-11T00:16:55.940Z,19.00
2022-08-11T00:18:00.218Z,19.00
2022-08-11T00:19:03.714Z,18.90
2022-08-11T00:20:11.758Z,18.90
2022-08-11T00:21:19.816Z,18.90
2022-08-11T00:22:45.211Z,18.90
2022-08-11T00:23:55.362Z,18.90
2022-08-11T00:25:02.392Z,18.90
2022-08-11T00:26:08.019Z,18.80
2022-08-11T00:27:11.229Z,18.80
2022-08-11T00:28:27.852Z,18.80
2022-08-11T00:29:31.402Z,18.80
2022-08-11T00:30:39.628Z,18.80
2022-08-11T00:31:46.830Z,18.80
2022-08-11T00:32:56.059Z,18.80
2022-08-11T00:34:02.081Z,18.70
2022-08-11T00:35:51.872Z,18.80
2022-08-11T00:36:41.511Z,18.70
2022-08-11T00:37:48.264Z,18.70
2022-08-11T00:38:54.325Z,18.70
2022-08-11T00:39:58.056Z,18.70
2022-08-11T00:41:19.156Z,18.70
2022-08-11T00:42:40.780Z,18.70
2022-08-11T00:44:02.162Z,18.60
2022-08-11T00:45:12.116Z,18.60
2022-08-11T00:46:29.655Z,18.60
2022-08-11T00:47:46.157Z,18.50
2022-08-11T00:49:02.120Z,18.50
2022-08-11T00:50:20.320Z,18.50
2022-08-11T00:52:04.312Z,18.50
2022-08-11T00:53:17.173Z,18.50
2022-08-11T00:55:01.534Z,18.40
2022-08-11T00:57:03.453Z,18.40
2022-08-11T00:58:51.071Z,18.40
2022-08-11T01:00:06.761Z,18.40
2022-08-11T01:01:14.281Z,18.30
2022-08-11T01:02:20.207Z,18.30
2022-08-11T01:03:37.425Z,18.30
2022-08-11T01:05:05.704Z,18.30
2022-08-11T01:06:34.802Z,18.30
2022-08-11T01:08:19.829Z,18.20
2022-08-11T01:09:34.807Z,18.20
2022-08-11T01:10:54.669Z,18.20
2022-08-11T01:12:21.639Z,18.20
2022-08-11T01:13:56.170Z,18.10
2022-08-11T01:15:24.694Z,18.10
2022-08-11T01:17:08.973Z,18.10
2022-08-11T01:18:56.255Z,18.10
2022-08-11T01:20:47.914Z,18.00
2022-08-11T01:22:24.739Z,18.00
2022-08-11T01:24:16.221Z,18.00
2022-08-11T01:26:01.542Z,18.00
2022-08-11T01:27:38.673Z,17.90
2022-08-11T01:29:20.207Z,17.90
2022-08-11T01:30:54.399Z,17.90
2022-08-11T01:32:25.162Z,17.90
2022-08-11T01:34:04.346Z,17.80
2022-08-11T01:35:32.160Z,17.80
2022-08-11T01:37:13.606Z,17.80
2022-08-11T01:38:42.669Z,17.70
2022-08-11T01:40:14.419Z,17.70
2022-08-11T01:42:15.329Z,17.70
2022-08-11T01:44:16.732Z,17.70
2022-08-11T01:45:31.808Z,17.70
2022-08-11T01:46:39.390Z,17.60
2022-08-11T01:47:54.292Z,17.60
2022-08-11T01:50:05.146Z,17.60
2022-08-11T01:50:41.085Z,17.60
2022-08-11T01:52:03.171Z,17.60
2022-08-11T01:53:16.091Z,17.60
2022-08-11T01:54:38.265Z,17.60
2022-08-11T01:55:49.261Z,17.50
2022-08-11T01:57:05.725Z,17.50
2022-08-11T01:58:17.199Z,17.60
2022-08-11T01:59:24.637Z,17.50
2022-08-11T02:00:32.780Z,17.50
2022-08-11T02:01:54.601Z,17.60
2022-08-11T02:03:07.551Z,17.60
2022-08-11T02:04:21.800Z,17.60
2022-08-11T02:05:45.509Z,17.50
2022-08-11T02:06:56.317Z,17.50
2022-08-11T02:08:11.639Z,17.50
2022-08-11T02:09:25.779Z,17.50
2022-08-11T02:10:52.575Z,17.50
2022-08-11T02:12:03.446Z,17.50
2022-08-11T02:13:15.920Z,17.50
2022-08-11T02:14:28.993Z,17.40
2022-08-11T02:15:39.653Z,17.40
2022-08-11T02:16:54.082Z,17.40
2022-08-11T02:18:08.271Z,17.40
2022-08-11T02:19:42.215Z,17.40
2022-08-11T02:21:22.385Z,17.40
2022-08-11T02:23:05.546Z,17.30
2022-08-11T02:24:15.913Z,17.30
2022-08-11T02:25:27.423Z,17.30
2022-08-11T02:26:40.458Z,17.30
2022-08-11T02:27:45.554Z,17.30
2022-08-11T02:29:04.587Z,17.20
2022-08-11T02:30:11.066Z,17.20
2022-08-11T02:32:14.517Z,17.20
2022-08-11T02:33:27.465Z,17.20
2022-08-11T02:34:40.802Z,17.20
2022-08-11T02:35:52.495Z,17.20
2022-08-11T02:37:00.272Z,17.20
2022-08-11T02:38:15.649Z,17.20
2022-08-11T02:39:22.697Z,17.20
2022-08-11T02:40:36.955Z,17.20
2022-08-11T02:42:04.686Z,17.20
2022-08-11T02:43:23.272Z,17.20
2022-08-11T02:44:38.735Z,17.20
2022-08-11T02:45:49.108Z,17.20
2022-08-11T02:47:02.797Z,17.20
2022-08-11T02:48:31.732Z,17.20
2022-08-11T02:50:02.607Z,17.20
2022-08-11T02:51:22.038Z,17.20
2022-08-11T02:52:36.530Z,17.20
2022-08-11T02:53:56.352Z,17.20
2022-08-11T02:55:57.597Z,17.20
2022-08-11T02:56:52.353Z,17.20
2022-08-11T02:58:03.310Z,17.20
2022-08-11T02:59:30.802Z,17.20
2022-08-11T03:00:44.593Z,17.20
2022-08-11T03:01:53.182Z,17.20
2022-08-11T03:03:18.428Z,17.20
2022-08-11T03:04:25.546Z,17.10
2022-08-11T03:05:54.111Z,17.20
2022-08-11T03:07:03.521Z,17.10
2022-08-11T03:08:30.541Z,17.10
2022-08-11T03:09:46.573Z,17.10
2022-08-11T03:11:19.151Z,17.00
2022-08-11T03:12:53.447Z,17.00
2022-08-11T03:14:32.219Z,17.00
2022-08-11T03:16:11.390Z,16.90
2022-08-11T03:17:26.906Z,16.90
2022-08-11T03:18:34.778Z,16.90
2022-08-11T03:19:52.810Z,16.90
2022-08-11T03:21:09.481Z,16.90
2022-08-11T03:22:22.695Z,16.80
2022-08-11T03:23:31.149Z,16.80
2022-08-11T03:24:44.644Z,16.80
2022-08-11T03:25:51.693Z,16.80
2022-08-11T03:27:05.770Z,16.80
2022-08-11T03:28:21.229Z,16.80
2022-08-11T03:29:32.008Z,16.80
2022-08-11T03:30:43.617Z,16.70
2022-08-11T03:31:55.649Z,16.70
2022-08-11T03:33:34.199Z,16.70
2022-08-11T03:34:39.222Z,16.70
2022-08-11T03:35:47.889Z,16.80
2022-08-11T03:37:34.101Z,16.80
2022-08-11T03:38:50.170Z,16.80
2022-08-11T03:40:00.045Z,16.80
2022-08-11T03:42:01.480Z,16.70
2022-08-11T03:43:01.924Z,16.70
2022-08-11T03:44:10.539Z,16.70
2022-08-11T03:45:24.714Z,16.70
2022-08-11T03:46:42.527Z,16.60
2022-08-11T03:47:58.798Z,16.60
2022-08-11T03:49:09.530Z,16.60
2022-08-11T03:50:29.467Z,16.60
2022-08-11T03:51:44.999Z,16.60
2022-08-11T03:53:11.754Z,16.60
2022-08-11T03:54:22.431Z,16.60
2022-08-11T03:55:34.613Z,16.60
2022-08-11T03:57:15.714Z,16.60
2022-08-11T03:58:52.964Z,16.60
2022-08-11T04:00:26.552Z,16.60
2022-08-11T04:02:08.607Z,16.60
2022-08-11T04:03:48.038Z,16.60
2022-08-11T04:05:26.207Z,16.70
2022-08-11T04:07:17.648Z,16.70
2022-08-11T04:08:59.123Z,16.70
2022-08-11T04:10:33.563Z,16.70
2022-08-11T04:12:04.394Z,16.70
2022-08-11T04:13:51.467Z,16.70
2022-08-11T04:15:36.387Z,16.70
2022-08-11T04:16:44.797Z,16.80
2022-08-11T04:18:26.490Z,16.70
2022-08-11T04:19:51.122Z,16.70
2022-08-11T04:21:22.307Z,16.70
2022-08-11T04:23:03.255Z,16.70
2022-08-11T04:24:38.041Z,16.70
2022-08-11T04:26:15.954Z,16.70
2022-08-11T04:27:37.672Z,16.80
2022-08-11T04:28:56.213Z,16.70
2022-08-11T04:30:09.174Z,16.70
2022-08-11T04:31:51.363Z,16.70
2022-08-11T04:33:38.719Z,16.60
2022-08-11T04:34:57.401Z,16.60
2022-08-11T04:36:16.730Z,16.60
2022-08-11T04:37:41.819Z,16.60
2022-08-11T04:39:05.155Z,16.60
2022-08-11T04:40:57.049Z,16.60
2022-08-11T04:42:53.325Z,16.60
2022-08-11T04:44:24.637Z,16.70
2022-08-11T04:45:40.579Z,16.70
2022-08-11T04:47:00.571Z,16.70
2022-08-11T04:49:02.519Z,16.60
2022-08-11T04:50:41.583Z,16.70
2022-08-11T04:52:38.591Z,16.70
2022-08-11T04:54:10.989Z,16.70
2022-08-11T04:56:20.560Z,16.70
2022-08-11T04:57:51.537Z,16.70
2022-08-11T04:59:42.222Z,16.80
2022-08-11T05:01:15.149Z,16.70
2022-08-11T05:03:02.270Z,16.80
2022-08-11T05:04:41.593Z,16.90
2022-08-11T05:06:08.845Z,16.80
2022-08-11T05:08:01.871Z,16.90
2022-08-11T05:09:24.766Z,16.90
2022-08-11T05:10:43.806Z,16.90
2022-08-11T05:12:20.165Z,16.90
2022-08-11T05:13:47.415Z,16.90
2022-08-11T05:15:10.905Z,16.90
2022-08-11T05:16:35.492Z,16.90
2022-08-11T05:18:00.735Z,17.00
2022-08-11T05:19:23.734Z,17.00
2022-08-11T05:20:45.362Z,17.00
2022-08-11T05:22:12.596Z,17.10
2022-08-11T05:23:34.163Z,17.20
2022-08-11T05:25:14.631Z,17.20
2022-08-11T05:27:02.940Z,17.40
2022-08-11T05:28:30.621Z,17.50
2022-08-11T05:30:04.833Z,17.50
2022-08-11T05:31:35.089Z,17.50
2022-08-11T05:33:02.014Z,17.60
2022-08-11T05:34:30.406Z,17.60
2022-08-11T05:36:00.240Z,17.70
2022-08-11T05:37:25.752Z,17.80
2022-08-11T05:38:51.666Z,17.80
2022-08-11T05:40:18.705Z,17.90
2022-08-11T05:41:42.696Z,17.90
2022-08-11T05:43:10.180Z,18.00
2022-08-11T05:44:37.856Z,18.00
2022-08-11T05:46:04.781Z,18.10
2022-08-11T05:47:27.696Z,18.10
2022-08-11T05:48:52.658Z,18.20
2022-08-11T05:50:15.159Z,18.20
2022-08-11T05:51:36.586Z,18.30
2022-08-11T05:52:58.622Z,18.30
2022-08-11T05:54:28.806Z,18.40
2022-08-11T05:56:02.387Z,18.50
2022-08-11T05:57:08.328Z,18.60
2022-08-11T05:58:13.259Z,18.60
2022-08-11T05:59:19.618Z,18.60
2022-08-11T06:00:24.224Z,18.70
2022-08-11T06:01:31.023Z,18.70
2022-08-11T06:02:33.882Z,18.80
2022-08-11T06:03:58.822Z,18.90
2022-08-11T06:05:03.212Z,18.80
2022-08-11T06:06:09.677Z,18.90
2022-08-11T06:07:17.738Z,19.10
2022-08-11T06:08:28.923Z,19.20
2022-08-11T06:09:34.707Z,19.30
2022-08-11T06:10:40.349Z,19.30
2022-08-11T06:11:45.177Z,19.50
2022-08-11T06:12:53.974Z,19.70
2022-08-11T06:13:58.315Z,19.90
2022-08-11T06:15:06.436Z,20.10
2022-08-11T06:16:10.346Z,20.40
2022-08-11T06:17:14.849Z,20.70
2022-08-11T06:18:18.423Z,21.00
2022-08-11T06:19:24.864Z,21.30
2022-08-11T06:20:32.722Z,21.60
2022-08-11T06:21:37.282Z,21.80
2022-08-11T06:22:41.826Z,22.10
2022-08-11T06:23:46.103Z,22.40
2022-08-11T06:24:53.330Z,22.80
2022-08-11T06:25:56.684Z,23.10
2022-08-11T06:27:15.555Z,23.20
2022-08-11T06:28:22.033Z,23.40
2022-08-11T06:29:38.094Z,23.60
2022-08-11T06:30:51.400Z,23.90
2022-08-11T06:31:57.580Z,24.20
2022-08-11T06:33:02.742Z,24.40
2022-08-11T06:34:27.360Z,24.60
2022-08-11T06:35:41.671Z,24.70
2022-08-11T06:36:52.745Z,24.90
2022-08-11T06:38:07.788Z,24.80
2022-08-11T06:39:27.713Z,24.80
2022-08-11T06:40:39.560Z,25.10
2022-08-11T06:41:49.561Z,25.40
2022-08-11T06:42:58.685Z,25.80
2022-08-11T06:44:10.430Z,26.00
2022-08-11T06:45:25.576Z,26.00
2022-08-11T06:46:33.060Z,26.00
2022-08-11T06:47:35.788Z,26.30
2022-08-11T06:48:45.021Z,26.50
2022-08-11T06:50:07.281Z,26.70
2022-08-11T06:51:14.055Z,26.80
2022-08-11T06:52:34.496Z,26.90
2022-08-11T06:53:43.545Z,27.00
2022-08-11T06:55:57.870Z,27.20
2022-08-11T06:57:06.692Z,27.40
2022-08-11T06:58:38.143Z,27.30
2022-08-11T06:59:59.953Z,27.50
2022-08-11T07:01:09.201Z,27.50
2022-08-11T07:02:21.146Z,27.50
2022-08-11T07:03:27.792Z,27.80
2022-08-11T07:04:36.991Z,28.00
2022-08-11T07:05:45.054Z,28.10
2022-08-11T07:07:29.002Z,28.20
2022-08-11T07:09:21.737Z,28.30
2022-08-11T07:11:06.395Z,28.60
2022-08-11T07:12:56.353Z,28.60
2022-08-11T07:14:20.817Z,28.90
2022-08-11T07:16:10.638Z,28.80
2022-08-11T07:17:12.204Z,28.60
2022-08-11T07:18:48.023Z,28.70
2022-08-11T07:20:12.394Z,29.00
2022-08-11T07:22:02.717Z,29.20
2022-08-11T07:23:27.529Z,29.30
2022-08-11T07:25:01.483Z,29.60
2022-08-11T07:26:24.708Z,29.60
2022-08-11T07:27:51.302Z,29.70
2022-08-11T07:28:58.584Z,29.70
2022-08-11T07:30:05.362Z,30.00
2022-08-11T07:31:14.152Z,30.40
2022-08-11T07:32:25.122Z,30.50
2022-08-11T07:34:07.644Z,30.70
2022-08-11T07:35:10.321Z,30.70
2022-08-11T07:36:14.008Z,30.90
2022-08-11T07:37:19.938Z,30.70
2022-08-11T07:38:43.183Z,30.60
2022-08-11T07:39:48.690Z,30.30
2022-08-11T07:40:52.580Z,30.50
2022-08-11T07:41:58.656Z,30.80
2022-08-11T07:43:04.318Z,30.90
2022-08-11T07:44:09.841Z,30.90
2022-08-11T07:45:31.067Z,30.80
2022-08-11T07:46:51.983Z,30.80
2022-08-11T07:48:14.356Z,30.70
2022-08-11T07:49:36.815Z,30.50
2022-08-11T07:51:00.216Z,30.30
2022-08-11T07:52:22.419Z,30.40
2022-08-11T07:53:25.964Z,30.50
2022-08-11T07:54:33.384Z,30.60
2022-08-11T07:55:49.532Z,30.80
2022-08-11T07:57:09.536Z,30.80
2022-08-11T07:58:45.748Z,30.90
2022-08-11T08:00:15.811Z,31.00
2022-08-11T08:01:40.561Z,31.00
2022-08-11T08:03:02.781Z,30.70
2022-08-11T08:04:25.689Z,30.90
2022-08-11T08:05:48.417Z,31.00
2022-08-11T08:07:09.669Z,31.40
2022-08-11T08:08:33.082Z,31.50
2022-08-11T08:09:54.514Z,31.70
2022-08-11T08:11:16.045Z,32.00
2022-08-11T08:12:39.986Z,32.10
2022-08-11T08:14:01.865Z,31.90
2022-08-11T08:15:26.440Z,31.90
2022-08-11T08:16:49.088Z,32.10
2022-08-11T08:18:20.640Z,32.10
2022-08-11T08:19:18.878Z,32.20
2022-08-11T08:20:26.813Z,32.70
2022-08-11T08:21:30.357Z,32.90
2022-08-11T08:22:48.509Z,32.70
2022-08-11T08:23:53.940Z,32.80
2022-08-11T08:24:59.497Z,32.30
2022-08-11T08:26:04.535Z,32.20
2022-08-11T08:27:06.973Z,32.10
2022-08-11T08:28:14.531Z,32.00
2022-08-11T08:29:35.286Z,31.80
2022-08-11T08:30:49.765Z,31.80
2022-08-11T08:31:52.982Z,31.50
2022-08-11T08:32:57.818Z,31.80
2022-08-11T08:34:00.072Z,31.70
2022-08-11T08:35:05.797Z,31.70
2022-08-11T08:36:12.565Z,32.00
2022-08-11T08:37:45.819Z,32.10
2022-08-11T08:38:48.106Z,32.10
2022-08-11T08:39:50.862Z,32.20
2022-08-11T08:40:56.590Z,32.00
2022-08-11T08:42:00.696Z,31.70
2022-08-11T08:43:10.358Z,31.80
2022-08-11T08:44:37.324Z,31.60
2022-08-11T08:45:39.399Z,31.50
2022-08-11T08:46:46.091Z,31.20
2022-08-11T08:47:55.939Z,31.00
2022-08-11T08:49:01.863Z,30.90
2022-08-11T08:50:09.078Z,30.70
2022-08-11T08:52:00.868Z,30.20
2022-08-11T08:53:05.780Z,29.90
2022-08-11T08:54:11.291Z,29.90
2022-08-11T08:55:21.718Z,29.90
2022-08-11T08:56:28.335Z,29.90
2022-08-11T08:57:39.318Z,30.00
2022-08-11T08:58:49.852Z,29.90
2022-08-11T08:59:54.687Z,30.10
2022-08-11T09:01:00.363Z,30.20
2022-08-11T09:02:04.670Z,30.10
2022-08-11T09:03:29.477Z,30.10
2022-08-11T09:04:31.917Z,30.10
2022-08-11T09:05:34.823Z,30.10
2022-08-11T09:06:42.911Z,29.90
2022-08-11T09:07:47.831Z,29.70
2022-08-11T09:08:54.566Z,29.50
2022-08-11T09:09:59.093Z,29.30
2022-08-11T09:11:21.275Z,29.20
2022-08-11T09:12:38.568Z,29.30
2022-08-11T09:13:44.710Z,29.40
2022-08-11T09:15:01.945Z,29.30
2022-08-11T09:16:07.023Z,29.30
2022-08-11T09:17:09.326Z,29.20
2022-08-11T09:18:13.850Z,29.20
2022-08-11T09:19:18.528Z,29.10
2022-08-11T09:20:24.951Z,29.10
2022-08-11T09:21:48.199Z,29.00
2022-08-11T09:24:06.364Z,29.00
2022-08-11T09:24:55.801Z,29.00
2022-08-11T09:26:18.854Z,29.10
2022-08-11T09:27:22.803Z,29.00
2022-08-11T09:28:29.547Z,29.00
2022-08-11T09:29:34.809Z,28.80
2022-08-11T09:30:37.890Z,28.80
2022-08-11T09:31:41.499Z,28.90
2022-08-11T09:32:44.595Z,28.90
2022-08-11T09:33:48.670Z,29.00
2022-08-11T09:34:52.185Z,28.90
2022-08-11T09:35:58.642Z,28.90
2022-08-11T09:37:28.453Z,28.90
2022-08-11T09:39:00.585Z,28.90
2022-08-11T09:40:27.358Z,28.60
2022-08-11T09:42:00.565Z,28.50
2022-08-11T09:43:12.188Z,28.40
2022-08-11T09:44:33.576Z,28.30
2022-08-11T09:45:40.543Z,28.30
2022-08-11T09:46:44.662Z,28.30
2022-08-11T09:47:49.763Z,28.20
2022-08-11T09:48:54.372Z,28.10
2022-08-11T09:50:00.590Z,28.00
2022-08-11T09:51:05.313Z,28.10
2022-08-11T09:52:09.495Z,28.20
2022-08-11T09:53:36.792Z,28.30
2022-08-11T09:54:37.005Z,28.40
2022-08-11T09:55:41.743Z,28.50
2022-08-11T09:57:05.488Z,28.50
2022-08-11T09:58:41.468Z,28.40
2022-08-11T09:59:37.193Z,28.20
2022-08-11T10:00:41.245Z,27.90
2022-08-11T10:01:49.245Z,27.90
2022-08-11T10:02:54.509Z,28.00
2022-08-11T10:04:01.381Z,28.00
2022-08-11T10:05:18.947Z,28.00
2022-08-11T10:06:40.162Z,27.90
2022-08-11T10:07:50.403Z,27.90
2022-08-11T10:08:54.660Z,27.90
2022-08-11T10:10:02.131Z,27.90
2022-08-11T10:11:09.319Z,27.90
2022-08-11T10:12:24.664Z,28.10
2022-08-11T10:14:30.875Z,28.20
2022-08-11T10:15:20.704Z,28.00
2022-08-11T10:16:27.328Z,27.80
2022-08-11T10:17:33.067Z,27.70
2022-08-11T10:18:49.637Z,27.60
2022-08-11T10:20:04.852Z,27.60
2022-08-11T10:21:11.525Z,27.50
2022-08-11T10:22:36.721Z,27.30
2022-08-11T10:24:00.606Z,27.40
2022-08-11T10:25:27.155Z,27.40
2022-08-11T10:26:54.540Z,27.50
2022-08-11T10:28:28.947Z,27.30
2022-08-11T10:29:44.243Z,27.50
2022-08-11T10:31:06.876Z,27.60
2022-08-11T10:32:54.303Z,27.70
2022-08-11T10:34:03.798Z,27.80
2022-08-11T10:35:09.078Z,28.00
2022-08-11T10:36:16.519Z,27.90
2022-08-11T10:37:23.110Z,28.00
2022-08-11T10:38:27.823Z,28.10
2022-08-11T10:39:31.322Z,28.20
2022-08-11T10:40:35.839Z,28.30
2022-08-11T10:42:07.441Z,28.20
2022-08-11T10:43:57.197Z,28.20
2022-08-11T10:44:39.569Z,28.30
2022-08-11T10:46:04.235Z,28.30
2022-08-11T10:47:27.187Z,28.30
2022-08-11T10:48:38.133Z,28.20
2022-08-11T10:49:40.372Z,28.10
2022-08-11T10:51:05.491Z,27.90
2022-08-11T10:52:26.405Z,27.90
2022-08-11T10:53:47.075Z,27.90
2022-08-11T10:55:08.426Z,27.90
2022-08-11T10:56:29.931Z,27.90
2022-08-11T10:58:04.735Z,27.80
2022-08-11T10:59:10.206Z,27.70
2022-08-11T11:00:15.993Z,27.70
2022-08-11T11:01:24.681Z,27.70
2022-08-11T11:02:29.195Z,27.80
2022-08-11T11:03:34.690Z,27.70
2022-08-11T11:04:50.945Z,27.70
2022-08-11T11:06:28.870Z,27.80
2022-08-11T11:07:24.960Z,27.80
2022-08-11T11:08:50.166Z,27.90
2022-08-11T11:09:59.483Z,28.00
2022-08-11T11:11:03.026Z,28.00
2022-08-11T11:12:30.289Z,28.10
2022-08-11T11:13:55.560Z,28.10
2022-08-11T11:15:21.302Z,28.10
2022-08-11T11:16:39.390Z,28.10
2022-08-11T11:17:58.077Z,28.20
2022-08-11T11:19:06.375Z,28.30
2022-08-11T11:20:34.712Z,28.40
2022-08-11T11:21:34.748Z,28.40
2022-08-11T11:22:40.291Z,28.40
2022-08-11T11:23:52.840Z,28.40
2022-08-11T11:25:00.622Z,28.40
2022-08-11T11:26:30.561Z,28.30
2022-08-11T11:27:46.510Z,28.20
2022-08-11T11:29:25.188Z,28.10
2022-08-11T11:30:36.688Z,28.00
2022-08-11T11:31:53.104Z,28.00
2022-08-11T11:33:08.279Z,28.00
2022-08-11T11:34:20.859Z,28.00
2022-08-11T11:35:29.059Z,28.00
2022-08-11T11:36:41.070Z,28.00
2022-08-11T11:37:57.139Z,28.00
2022-08-11T11:39:09.104Z,28.00
2022-08-11T11:40:13.539Z,28.00
2022-08-11T11:41:26.149Z,28.00
2022-08-11T11:42:29.756Z,28.00
2022-08-11T11:43:36.576Z,28.10
2022-08-11T11:44:43.347Z,28.10
2022-08-11T11:45:46.528Z,28.20
2022-08-11T11:46:49.493Z,28.20
2022-08-11T11:47:54.402Z,28.20
2022-08-11T11:48:57.198Z,28.20
2022-08-11T11:50:00.878Z,28.20
2022-08-11T11:51:04.591Z,28.10
2022-08-11T11:52:08.743Z,28.00
2022-08-11T11:53:14.098Z,27.90
2022-08-11T11:54:16.917Z,28.00
2022-08-11T11:56:25.724Z,28.00
2022-08-11T11:57:59.264Z,28.00
2022-08-11T11:59:23.591Z,28.00
2022-08-11T12:00:48.024Z,28.00
2022-08-11T12:01:51.806Z,28.00
2022-08-11T12:02:56.002Z,28.00
2022-08-11T12:04:00.041Z,28.00
2022-08-11T12:05:02.471Z,28.00
2022-08-11T12:06:07.920Z,28.00
2022-08-11T12:07:29.537Z,28.10
2022-08-11T12:08:32.977Z,28.00
2022-08-11T12:09:35.117Z,28.00
2022-08-11T12:10:38.776Z,28.00
2022-08-11T12:11:59.488Z,27.90
2022-08-11T12:13:21.299Z,27.90
2022-08-11T12:14:27.589Z,27.90
2022-08-11T12:16:31.306Z,27.90
2022-08-11T12:16:58.275Z,27.90
2022-08-11T12:18:01.667Z,27.90
2022-08-11T12:19:07.251Z,28.00
2022-08-11T12:20:33.514Z,28.10
2022-08-11T12:21:37.007Z,28.10
2022-08-11T12:22:58.192Z,28.10
2022-08-11T12:24:20.974Z,28.10
2022-08-11T12:25:41.952Z,28.20
2022-08-11T12:27:15.108Z,28.20
2022-08-11T12:28:22.885Z,28.20
2022-08-11T12:29:32.106Z,28.20
2022-08-11T12:30:36.814Z,28.20
2022-08-11T12:31:41.111Z,28.20
2022-08-11T12:32:45.396Z,28.20
2022-08-11T12:33:47.393Z,28.10
2022-08-11T12:34:51.581Z,28.10
2022-08-11T12:36:00.966Z,28.10
2022-08-11T12:37:13.137Z,28.00
2022-08-11T12:38:29.642Z,28.00
2022-08-11T12:40:10.883Z,28.00
2022-08-11T12:41:35.671Z,28.00
2022-08-11T12:42:56.890Z,28.00
2022-08-11T12:44:28.344Z,28.00
2022-08-11T12:45:32.315Z,28.00
2022-08-11T12:46:38.652Z,28.00
2022-08-11T12:48:45.361Z,27.90
2022-08-11T12:49:46.195Z,28.00
2022-08-11T12:51:12.886Z,28.00
2022-08-11T12:52:21.660Z,28.00
2022-08-11T12:53:27.407Z,28.00
2022-08-11T12:54:34.948Z,28.00
2022-08-11T12:56:03.870Z,28.00
2022-08-11T12:57:36.378Z,28.00
2022-08-11T12:58:41.925Z,28.10
2022-08-11T13:00:03.075Z,28.00
2022-08-11T13:01:23.821Z,28.10
2022-08-11T13:02:47.253Z,28.10
2022-08-11T13:04:07.918Z,28.10
2022-08-11T13:05:16.122Z,28.10
2022-08-11T13:06:19.518Z,28.10
2022-08-11T13:07:23.006Z,28.10
2022-08-11T13:08:29.286Z,28.10
2022-08-11T13:09:31.921Z,28.10
2022-08-11T13:10:52.825Z,28.10
2022-08-11T13:12:13.661Z,28.10
2022-08-11T13:13:53.663Z,28.20
2022-08-11T13:14:41.392Z,28.20
2022-08-11T13:15:45.855Z,28.10
2022-08-11T13:17:04.164Z,28.10
2022-08-11T13:18:09.386Z,28.20
2022-08-11T13:19:11.619Z,28.20
2022-08-11T13:20:17.451Z,28.20
2022-08-11T13:21:21.452Z,28.20
2022-08-11T13:22:25.343Z,28.20
2022-08-11T13:23:29.798Z,28.20
2022-08-11T13:24:34.132Z,28.20
2022-08-11T13:25:38.925Z,28.20
2022-08-11T13:26:48.488Z,28.20
2022-08-11T13:27:56.797Z,28.20
2022-08-11T13:29:03.807Z,28.20
2022-08-11T13:30:27.805Z,28.20
2022-08-11T13:31:31.089Z,28.20
2022-08-11T13:32:33.367Z,28.20
2022-08-11T13:33:42.282Z,28.20
2022-08-11T13:34:45.293Z,28.20
2022-08-11T13:35:52.593Z,28.20
2022-08-11T13:36:59.337Z,28.20
2022-08-11T13:38:19.344Z,28.20
2022-08-11T13:39:25.054Z,28.20
2022-08-11T13:40:52.642Z,28.20
2022-08-11T13:41:53.378Z,28.20
2022-08-11T13:42:56.061Z,28.20
2022-08-11T13:44:00.130Z,28.20
2022-08-11T13:45:07.538Z,28.20
2022-08-11T13:46:24.553Z,28.20
2022-08-11T13:47:33.277Z,28.20
2022-08-11T13:48:43.539Z,28.20
2022-08-11T13:49:47.949Z,28.20
2022-08-11T13:51:09.422Z,28.20
2022-08-11T13:52:14.513Z,28.30
2022-08-11T13:53:21.012Z,28.30
2022-08-11T13:54:26.852Z,28.30
2022-08-11T13:55:33.292Z,28.30
2022-08-11T13:56:54.980Z,28.30
2022-08-11T13:58:07.707Z,28.30
2022-08-11T13:59:29.945Z,28.30
2022-08-11T14:00:34.104Z,28.30
2022-08-11T14:02:19.442Z,28.30
2022-08-11T14:03:06.577Z,28.30
2022-08-11T14:04:31.244Z,28.30
2022-08-11T14:05:40.898Z,28.30
2022-08-11T14:06:53.462Z,28.30
2022-08-11T14:08:00.750Z,28.30
2022-08-11T14:09:06.246Z,28.30
2022-08-11T14:10:13.353Z,28.30
2022-08-11T14:12:23.798Z,28.30
2022-08-11T14:13:21.208Z,28.30
2022-08-11T14:14:28.567Z,28.30
2022-08-11T14:15:34.544Z,28.30
2022-08-11T14:16:43.690Z,28.30
2022-08-11T14:17:50.411Z,28.30
2022-08-11T14:18:58.498Z,28.30
2022-08-11T14:20:35.481Z,28.30
2022-08-11T14:21:54.251Z,28.30
2022-08-11T14:22:57.617Z,28.40
2022-08-11T14:24:01.601Z,28.40
2022-08-11T14:25:04.354Z,28.40
2022-08-11T14:26:27.759Z,28.30
2022-08-11T14:28:30.249Z,28.30
2022-08-11T14:28:55.289Z,28.30
2022-08-11T14:29:59.167Z,28.40
2022-08-11T14:31:02.870Z,28.30
2022-08-11T14:32:08.450Z,28.30
2022-08-11T14:33:17.068Z,28.30
2022-08-11T14:34:26.242Z,28.30
2022-08-11T14:35:30.614Z,28.30
2022-08-11T14:36:36.011Z,28.30
2022-08-11T14:37:40.565Z,28.30
2022-08-11T14:38:43.436Z,28.40
2022-08-11T14:39:49.170Z,28.40
2022-08-11T14:41:10.732Z,28.40
2022-08-11T14:42:33.937Z,28.40
2022-08-11T14:44:13.392Z,28.40
2022-08-11T14:45:57.475Z,28.50
2022-08-11T14:47:23.843Z,28.50
2022-08-11T14:48:28.518Z,28.40
2022-08-11T14:49:32.235Z,28.50
2022-08-11T14:50:37.495Z,28.50
2022-08-11T14:51:43.906Z,28.50
2022-08-11T14:52:52.855Z,28.50
2022-08-11T14:54:15.958Z,28.40
2022-08-11T14:55:40.944Z,28.40
2022-08-11T14:56:44.744Z,28.40
2022-08-11T14:57:54.994Z,28.40
2022-08-11T14:58:59.077Z,28.40
2022-08-11T15:00:02.567Z,28.40
2022-08-11T15:01:26.670Z,28.30
2022-08-11T15:02:48.451Z,28.30
2022-08-11T15:04:27.392Z,28.30
2022-08-11T15:05:16.673Z,28.20
2022-08-11T15:06:21.361Z,28.20
2022-08-11T15:07:29.901Z,28.30
2022-08-11T15:08:53.416Z,28.30
2022-08-11T15:10:14.201Z,28.30
2022-08-11T15:11:37.381Z,28.30
2022-08-11T15:12:43.974Z,28.30
2022-08-11T15:13:46.140Z,28.40
2022-08-11T15:15:07.820Z,28.30
2022-08-11T15:16:30.044Z,28.40
2022-08-11T15:17:40.922Z,28.40
2022-08-11T15:18:46.896Z,28.40
2022-08-11T15:20:05.594Z,28.40
2022-08-11T15:21:26.845Z,28.40
2022-08-11T15:22:49.253Z,28.40
2022-08-11T15:24:09.707Z,28.40
2022-08-11T15:25:13.081Z,28.30
2022-08-11T15:26:19.855Z,28.40
2022-08-11T15:27:41.741Z,28.30
2022-08-11T15:29:06.128Z,28.30
2022-08-11T15:30:33.000Z,28.30
2022-08-11T15:31:57.217Z,28.30
2022-08-11T15:33:19.300Z,28.30
2022-08-11T15:34:44.588Z,28.40
2022-08-11T15:36:05.809Z,28.40
2022-08-11T15:37:27.466Z,28.40
2022-08-11T15:38:36.370Z,28.40
2022-08-11T15:40:06.998Z,28.40
2022-08-11T15:42:00.369Z,28.40
2022-08-11T15:43:29.225Z,28.40
2022-08-11T15:45:02.574Z,28.40
2022-08-11T15:46:13.002Z,28.40
2022-08-11T15:47:17.863Z,28.40
2022-08-11T15:48:35.483Z,28.40
2022-08-11T15:50:10.981Z,28.40
2022-08-11T15:51:10.716Z,28.30
2022-08-11T15:52:19.665Z,28.30
2022-08-11T15:53:30.441Z,28.20
2022-08-11T15:54:36.078Z,28.20
2022-08-11T15:55:40.252Z,28.20
2022-08-11T15:56:46.488Z,28.20
2022-08-11T15:58:09.983Z,28.20
2022-08-11T15:59:42.967Z,28.20
2022-08-11T16:01:08.726Z,28.20
2022-08-11T16:02:33.590Z,28.10
2022-08-11T16:04:07.753Z,28.10
2022-08-11T16:05:44.949Z,28.10
2022-08-11T16:06:46.357Z,28.10
2022-08-11T16:07:52.813Z,28.10
2022-08-11T16:08:59.534Z,28.10
2022-08-11T16:10:10.813Z,28.10
2022-08-11T16:11:22.729Z,28.10
2022-08-11T16:12:31.428Z,28.10
2022-08-11T16:13:52.150Z,28.00
2022-08-11T16:15:20.802Z,28.10
2022-08-11T16:16:24.423Z,28.10
2022-08-11T16:17:59.971Z,28.10
2022-08-11T16:19:07.827Z,28.10
2022-08-11T16:20:13.297Z,28.10
2022-08-11T16:21:26.255Z,28.10
2022-08-11T16:22:43.183Z,28.10
2022-08-11T16:24:06.943Z,28.00
2022-08-11T16:27:01.744Z,28.00
2022-08-11T16:27:10.758Z,27.90
2022-08-11T16:28:07.417Z,27.90
2022-08-11T16:29:11.586Z,28.00
2022-08-11T16:30:15.800Z,28.00
2022-08-11T16:31:21.149Z,28.00
2022-08-11T16:32:28.587Z,27.90